Time;durP1;ratioP1;P1;durP2;ratioP2;P2;SDS_P1;SDS_P2;PMS_P1;PMS_P2;Temp;Humidity;BMP_temperature;BMP_pressure;BME280_temperature;BME280_humidity;BME280_pressure;Samples;Min_cycle;Max_cycle;Signal;HPM_P1;HPM_P2
2023/05/16 00:01:42;;;;;;;6.13;1.90;;;;;;;;;;5061620;28;20063;-69
2023/05/16 00:04:07;;;;;;;8.03;2.00;;;;;;;;;;5062632;28;20087;-70
2023/05/16 00:06:34;;;;;;;6.27;1.90;;;;;;;;;;5068402;28;20468;-69
2023/05/16 00:08:59;;;;;;;9.40;2.07;;;;;;;;;;5054372;28;20497;-69
2023/05/16 00:11:25;;;;;;;5.93;1.87;;;;;;;;;;5061631;28;20025;-70
2023/05/16 00:13:50;;;;;;;11.03;2.40;;;;;;;;;;5056305;28;20017;-69
2023/05/16 00:16:15;;;;;;;9.13;2.30;;;;;;;;;;5060737;28;20464;-70
2023/05/16 00:18:44;;;;;;;10.43;2.07;;;;;;;;;;5068580;28;20035;-69
2023/05/16 00:21:09;;;;;;;14.13;2.23;;;;;;;;;;5056959;28;20020;-70
2023/05/16 00:23:35;;;;;;;10.63;2.30;;;;;;;;;;5057112;28;20024;-70
2023/05/16 00:26:00;;;;;;;7.57;2.27;;;;;;;;;;5059902;28;20021;-69
2023/05/16 00:28:25;;;;;;;14.60;2.90;;;;;;;;;;5064127;28;20028;-69
2023/05/16 00:30:51;;;;;;;9.50;2.30;;;;;;;;;;5056231;28;20017;-69
2023/05/16 00:33:16;;;;;;;11.23;2.63;;;;;;;;;;5061949;28;20044;-69
2023/05/16 00:35:41;;;;;;;7.73;2.00;;;;;;;;;;5056576;28;20017;-69
2023/05/16 00:38:06;;;;;;;10.10;2.33;;;;;;;;;;5055459;28;20025;-70
2023/05/16 00:40:32;;;;;;;12.90;2.40;;;;;;;;;;5057608;28;20513;-69
2023/05/16 00:42:57;;;;;;;16.83;2.40;;;;;;;;;;5056136;28;20471;-69
2023/05/16 00:45:22;;;;;;;9.97;2.40;;;;;;;;;;5069065;28;20060;-69
2023/05/16 00:47:48;;;;;;;9.57;2.47;;;;;;;;;;5056668;28;20051;-69
2023/05/16 00:50:13;;;;;;;10.60;2.17;;;;;;;;;;5074170;28;20058;-70
2023/05/16 00:52:39;;;;;;;10.33;2.30;;;;;;;;;;5071354;28;20009;-69
2023/05/16 00:55:05;;;;;;;9.90;2.50;;;;;;;;;;5058755;28;20021;-70
2023/05/16 00:57:30;;;;;;;10.97;2.40;;;;;;;;;;5061496;28;20111;-69
2023/05/16 00:59:56;;;;;;;12.13;2.07;;;;;;;;;;5055486;28;20370;-69
2023/05/16 01:02:21;;;;;;;11.27;2.43;;;;;;;;;;5063959;22;20106;-62
2023/05/16 01:04:47;;;;;;;9.80;2.30;;;;;;;;;;5036638;28;20032;-62
2023/05/16 01:07:13;;;;;;;13.17;2.30;;;;;;;;;;5046262;28;20049;-62
2023/05/16 01:09:38;;;;;;;11.07;1.90;;;;;;;;;;5043478;28;20064;-62
2023/05/16 01:12:10;;;;;;;14.13;2.57;;;;;;;;;;5051497;28;20031;-62
2023/05/16 01:14:51;;;;;;;12.27;2.53;;;;;;;;;;5045597;28;20025;-61
2023/05/16 01:17:28;;;;;;;11.00;2.83;;;;;;;;;;5042488;28;20036;-62
2023/05/16 01:20:10;;;;;;;12.90;2.07;;;;;;;;;;5051038;28;20024;-62
2023/05/16 01:22:53;;;;;;;9.30;1.95;;;;;;;;;;5059979;28;20079;-62
2023/05/16 01:25:51;;;;;;;12.10;2.27;;;;;;;;;;5038387;28;20029;-62
2023/05/16 01:28:16;;;;;;;12.80;2.20;;;;;;;;;;5026703;28;20469;-62
2023/05/16 01:30:42;;;;;;;13.80;2.20;;;;;;;;;;5035322;28;20025;-62
2023/05/16 01:33:08;;;;;;;14.13;2.27;;;;;;;;;;5035511;28;20025;-62
2023/05/16 01:35:38;;;;;;;15.43;2.00;;;;;;;;;;5035831;28;20101;-62
2023/05/16 01:38:10;;;;;;;19.80;3.70;;;;;;;;;;5050217;28;20033;-62
2023/05/16 01:40:37;;;;;;;12.17;2.10;;;;;;;;;;5045897;28;20029;-62
2023/05/16 01:43:07;;;;;;;14.00;3.07;;;;;;;;;;5037355;28;20021;-62
2023/05/16 01:45:34;;;;;;;12.23;2.33;;;;;;;;;;5047134;28;20396;-62
2023/05/16 01:48:02;;;;;;;8.37;1.93;;;;;;;;;;5039855;28;20423;-62
2023/05/16 01:50:29;;;;;;;15.87;2.10;;;;;;;;;;5050866;28;20111;-62
2023/05/16 01:53:05;;;;;;;11.03;2.00;;;;;;;;;;5070677;28;20033;-62
2023/05/16 01:55:51;;;;;;;16.10;2.40;;;;;;;;;;5039148;28;20032;-62
2023/05/16 01:58:22;;;;;;;15.40;2.33;;;;;;;;;;5049866;28;20033;-62
2023/05/16 02:00:47;;;;;;;16.20;2.33;;;;;;;;;;5037294;28;20116;-62
2023/05/16 02:03:13;;;;;;;13.80;2.40;;;;;;;;;;5028959;28;20124;-62
2023/05/16 02:05:38;;;;;;;16.20;3.33;;;;;;;;;;5026361;28;20495;-62
2023/05/16 02:08:04;;;;;;;10.80;2.20;;;;;;;;;;5016027;28;20446;-62
2023/05/16 02:10:29;;;;;;;16.20;2.87;;;;;;;;;;5022530;28;20018;-62
2023/05/16 02:12:54;;;;;;;13.10;2.43;;;;;;;;;;5024550;28;20044;-62
2023/05/16 02:15:20;;;;;;;12.67;2.93;;;;;;;;;;5024827;28;20026;-62
2023/05/16 02:17:46;;;;;;;15.60;3.07;;;;;;;;;;5033072;28;20366;-62
2023/05/16 02:20:12;;;;;;;18.30;2.80;;;;;;;;;;5021428;28;20032;-62
2023/05/16 02:22:42;;;;;;;13.07;2.70;;;;;;;;;;5035891;28;20477;-62
2023/05/16 02:25:08;;;;;;;11.02;2.40;;;;;;;;;;5033810;28;20045;-62
2023/05/16 02:27:34;;;;;;;18.63;2.50;;;;;;;;;;5043123;28;20025;-62
2023/05/16 02:29:59;;;;;;;13.93;2.90;;;;;;;;;;5026237;28;20144;-62
2023/05/16 02:32:25;;;;;;;13.63;2.47;;;;;;;;;;5018024;28;20570;-62
2023/05/16 02:34:50;;;;;;;21.43;3.00;;;;;;;;;;5029836;28;20025;-62
2023/05/16 02:37:15;;;;;;;16.77;2.70;;;;;;;;;;5021859;28;20394;-62
2023/05/16 02:39:40;;;;;;;14.77;2.80;;;;;;;;;;5030061;28;20066;-62
2023/05/16 02:42:06;;;;;;;15.00;2.53;;;;;;;;;;5022147;28;20018;-62
2023/05/16 02:44:31;;;;;;;23.87;2.60;;;;;;;;;;5029738;28;20021;-62
2023/05/16 02:46:56;;;;;;;19.10;2.63;;;;;;;;;;5023031;28;20496;-62
2023/05/16 02:49:22;;;;;;;20.50;2.77;;;;;;;;;;5024505;28;20508;-62
2023/05/16 02:51:47;;;;;;;10.87;2.60;;;;;;;;;;5024238;28;20028;-63
2023/05/16 02:54:12;;;;;;;13.73;2.50;;;;;;;;;;5030181;28;20009;-62
2023/05/16 02:56:38;;;;;;;16.40;2.90;;;;;;;;;;5015830;28;20454;-70
2023/05/16 02:59:03;;;;;;;22.30;2.60;;;;;;;;;;5015864;28;20026;-71
2023/05/16 03:01:29;;;;;;;18.57;2.80;;;;;;;;;;5016885;28;20481;-70
2023/05/16 03:03:54;;;;;;;22.67;3.27;;;;;;;;;;5022600;28;20107;-70
2023/05/16 03:06:19;;;;;;;27.47;4.07;;;;;;;;;;5020137;28;20413;-70
2023/05/16 03:08:45;;;;;;;15.40;2.80;;;;;;;;;;5013725;28;20057;-70
2023/05/16 03:11:10;;;;;;;17.80;2.83;;;;;;;;;;5021030;28;20021;-70
2023/05/16 03:13:35;;;;;;;18.27;2.33;;;;;;;;;;5015998;28;20022;-70
2023/05/16 03:16:01;;;;;;;12.93;2.50;;;;;;;;;;5022560;28;20026;-70
2023/05/16 03:18:26;;;;;;;22.60;2.80;;;;;;;;;;5030465;28;20389;-71
2023/05/16 03:20:51;;;;;;;25.07;3.07;;;;;;;;;;5029020;28;20021;-70
2023/05/16 03:23:17;;;;;;;19.17;2.63;;;;;;;;;;5013693;28;20045;-70
2023/05/16 03:25:42;;;;;;;21.43;2.47;;;;;;;;;;5021482;28;20021;-71
2023/05/16 03:28:07;;;;;;;24.83;2.70;;;;;;;;;;5014914;28;20060;-70
2023/05/16 03:30:33;;;;;;;19.47;2.53;;;;;;;;;;5015863;28;20140;-70
2023/05/16 03:32:58;;;;;;;22.13;3.30;;;;;;;;;;5012965;28;20041;-71
2023/05/16 03:35:24;;;;;;;18.00;2.57;;;;;;;;;;5012973;28;20485;-71
2023/05/16 03:37:49;;;;;;;16.17;2.50;;;;;;;;;;5024504;28;20484;-71
2023/05/16 03:40:14;;;;;;;22.73;3.13;;;;;;;;;;5025075;28;20393;-71
2023/05/16 03:42:40;;;;;;;24.10;3.27;;;;;;;;;;5017866;28;20049;-70
2023/05/16 03:45:05;;;;;;;23.90;2.67;;;;;;;;;;5018143;28;20393;-71
2023/05/16 03:47:31;;;;;;;17.03;2.87;;;;;;;;;;5029018;28;20021;-70
2023/05/16 03:49:56;;;;;;;14.17;2.40;;;;;;;;;;5025485;28;20477;-71
2023/05/16 03:52:22;;;;;;;17.87;2.63;;;;;;;;;;5017147;28;20063;-71
2023/05/16 03:54:47;;;;;;;19.37;2.50;;;;;;;;;;5020984;28;20385;-71
2023/05/16 03:57:12;;;;;;;17.83;2.80;;;;;;;;;;5027347;28;20036;-70
2023/05/16 03:59:38;;;;;;;16.73;2.80;;;;;;;;;;5012912;28;20038;-71
2023/05/16 04:02:03;;;;;;;17.17;2.43;;;;;;;;;;5021221;28;20056;-70
2023/05/16 04:04:28;;;;;;;18.43;2.93;;;;;;;;;;5024536;28;20436;-70
2023/05/16 04:06:54;;;;;;;21.10;2.60;;;;;;;;;;5022436;28;20022;-71
2023/05/16 04:09:19;;;;;;;19.07;2.93;;;;;;;;;;5024983;28;20425;-71
2023/05/16 04:11:45;;;;;;;16.80;2.40;;;;;;;;;;5020035;28;20021;-70
2023/05/16 04:14:10;;;;;;;14.37;2.50;;;;;;;;;;5031920;28;20021;-70
2023/05/16 04:16:35;;;;;;;15.57;2.97;;;;;;;;;;5021172;28;22047;-70
2023/05/16 04:19:01;;;;;;;14.90;2.80;;;;;;;;;;5023501;28;20032;-70
2023/05/16 04:21:26;;;;;;;31.97;3.03;;;;;;;;;;5030373;28;20029;-70
2023/05/16 04:23:51;;;;;;;17.20;2.30;;;;;;;;;;5029354;28;20389;-70
2023/05/16 04:26:16;;;;;;;22.63;2.47;;;;;;;;;;5017786;28;20029;-70
2023/05/16 04:28:42;;;;;;;19.17;2.60;;;;;;;;;;5012550;28;20131;-70
2023/05/16 04:31:07;;;;;;;15.23;2.30;;;;;;;;;;5019224;28;20037;-70
2023/05/16 04:33:32;;;;;;;15.13;2.53;;;;;;;;;;5027282;28;20424;-70
2023/05/16 04:35:59;;;;;;;21.20;3.23;;;;;;;;;;5030703;28;20056;-70
2023/05/16 04:38:24;;;;;;;17.83;3.23;;;;;;;;;;5024142;28;20068;-70
2023/05/16 04:40:52;;;;;;;17.97;2.20;;;;;;;;;;5016673;28;20030;-70
2023/05/16 04:43:18;;;;;;;15.50;2.10;;;;;;;;;;5014549;28;20055;-70
2023/05/16 04:45:44;;;;;;;15.93;2.47;;;;;;;;;;5012930;28;20412;-69
2023/05/16 04:48:10;;;;;;;14.90;2.47;;;;;;;;;;5022266;28;20037;-69
2023/05/16 04:50:36;;;;;;;15.67;2.33;;;;;;;;;;5029890;28;20079;-69
2023/05/16 04:53:01;;;;;;;19.23;2.50;;;;;;;;;;5031040;28;20033;-69
2023/05/16 04:55:26;;;;;;;20.43;2.37;;;;;;;;;;5020205;28;20037;-69
2023/05/16 04:57:51;;;;;;;10.73;2.10;;;;;;;;;;5024012;28;20014;-69
2023/05/16 05:00:17;;;;;;;19.00;3.43;;;;;;;;;;5040754;28;20032;-69
2023/05/16 05:02:43;;;;;;;15.13;2.20;;;;;;;;;;5044449;28;20103;-69
2023/05/16 05:05:08;;;;;;;11.00;2.43;;;;;;;;;;5033066;28;20025;-69
2023/05/16 05:07:34;;;;;;;12.83;1.80;;;;;;;;;;5015685;28;20048;-69
2023/05/16 05:09:59;;;;;;;14.63;2.20;;;;;;;;;;5021117;28;20092;-69
2023/05/16 05:12:26;;;;;;;11.10;1.70;;;;;;;;;;5027106;28;20021;-69
2023/05/16 05:14:51;;;;;;;15.60;2.47;;;;;;;;;;5018628;28;20021;-69
2023/05/16 05:17:17;;;;;;;12.00;1.70;;;;;;;;;;5029543;28;20029;-68
2023/05/16 05:19:42;;;;;;;15.87;2.10;;;;;;;;;;5018427;28;20032;-68
2023/05/16 05:22:07;;;;;;;13.27;1.90;;;;;;;;;;5031692;28;20084;-68
2023/05/16 05:24:32;;;;;;;12.43;1.67;;;;;;;;;;5022768;28;20037;-68
2023/05/16 05:26:58;;;;;;;12.33;2.00;;;;;;;;;;5023770;28;20457;-68
2023/05/16 05:29:23;;;;;;;14.47;2.10;;;;;;;;;;5024380;28;20028;-68
2023/05/16 05:31:48;;;;;;;12.30;2.13;;;;;;;;;;5028464;28;20105;-68
2023/05/16 05:34:14;;;;;;;8.77;1.83;;;;;;;;;;5023939;28;20025;-68
2023/05/16 05:36:39;;;;;;;10.80;1.67;;;;;;;;;;5025490;28;20096;-68
2023/05/16 05:39:05;;;;;;;14.80;1.70;;;;;;;;;;5027559;28;20037;-68
2023/05/16 05:41:30;;;;;;;11.75;1.80;;;;;;;;;;5027867;28;20033;-68
2023/05/16 05:43:55;;;;;;;11.00;2.10;;;;;;;;;;5019505;28;20025;-68
2023/05/16 05:46:21;;;;;;;8.57;1.67;;;;;;;;;;5026324;28;20028;-68
2023/05/16 05:48:46;;;;;;;12.88;2.30;;;;;;;;;;5024358;28;20029;-69
2023/05/16 05:51:13;;;;;;;12.50;1.70;;;;;;;;;;5019399;28;20025;-69
2023/05/16 05:53:38;;;;;;;13.93;2.08;;;;;;;;;;5032867;28;20022;-69
2023/05/16 05:56:04;;;;;;;9.25;1.38;;;;;;;;;;5014728;28;20097;-69
2023/05/16 05:58:29;;;;;;;16.08;2.75;;;;;;;;;;5014763;28;20033;-69
2023/05/16 06:00:54;;;;;;;11.88;2.22;;;;;;;;;;5015396;28;20429;-68
2023/05/16 06:03:20;;;;;;;12.52;2.03;;;;;;;;;;5020642;28;20409;-69
2023/05/16 06:05:46;;;;;;;12.43;1.83;;;;;;;;;;5015326;28;20385;-69
2023/05/16 06:08:11;;;;;;;13.30;1.83;;;;;;;;;;5014208;28;20351;-69
2023/05/16 06:10:37;;;;;;;11.48;2.13;;;;;;;;;;5028709;28;20021;-69
2023/05/16 06:13:02;;;;;;;14.07;2.08;;;;;;;;;;5041241;28;20057;-69
2023/05/16 06:15:27;;;;;;;7.82;1.25;;;;;;;;;;5033523;28;20500;-69
2023/05/16 06:17:53;;;;;;;7.75;1.50;;;;;;;;;;5034186;28;20018;-68
2023/05/16 06:20:18;;;;;;;10.70;1.77;;;;;;;;;;5033247;28;20055;-69
2023/05/16 06:22:43;;;;;;;13.10;1.52;;;;;;;;;;5037271;28;20028;-69
2023/05/16 06:25:09;;;;;;;12.80;1.90;;;;;;;;;;5028684;28;20026;-68
2023/05/16 06:27:34;;;;;;;11.10;1.60;;;;;;;;;;5034630;28;20025;-68
2023/05/16 06:29:59;;;;;;;9.75;2.10;;;;;;;;;;5034576;28;20157;-68
2023/05/16 06:32:24;;;;;;;9.23;1.77;;;;;;;;;;5033449;28;20030;-68
2023/05/16 06:34:50;;;;;;;10.85;1.95;;;;;;;;;;5033251;28;20024;-68
2023/05/16 06:37:16;;;;;;;11.40;1.65;;;;;;;;;;5034592;28;20490;-68
2023/05/16 06:39:41;;;;;;;11.38;1.88;;;;;;;;;;5033312;28;20036;-68
2023/05/16 06:42:06;;;;;;;10.63;1.65;;;;;;;;;;5031366;28;20035;-68
2023/05/16 06:44:32;;;;;;;9.32;1.58;;;;;;;;;;5032984;28;20362;-68
2023/05/16 06:46:57;;;;;;;9.07;1.48;;;;;;;;;;5033269;28;20033;-68
2023/05/16 06:49:23;;;;;;;8.98;1.42;;;;;;;;;;5032255;28;20480;-68
2023/05/16 06:51:48;;;;;;;7.60;1.40;;;;;;;;;;5033110;28;20017;-68
2023/05/16 06:54:13;;;;;;;10.70;2.00;;;;;;;;;;5034113;28;20021;-68
2023/05/16 06:56:39;;;;;;;11.20;1.40;;;;;;;;;;5034129;28;20480;-68
2023/05/16 06:59:04;;;;;;;8.00;1.60;;;;;;;;;;5033588;28;20163;-69
2023/05/16 07:01:29;;;;;;;12.48;2.10;;;;;;;;;;5033739;28;20017;-68
2023/05/16 07:03:55;;;;;;;7.97;1.40;;;;;;;;;;5038241;28;20161;-68
2023/05/16 07:06:20;;;;;;;8.40;1.67;;;;;;;;;;5014231;28;20034;-67
2023/05/16 07:08:46;;;;;;;8.93;1.60;;;;;;;;;;5025889;28;20022;-68
2023/05/16 07:11:11;;;;;;;8.30;1.50;;;;;;;;;;5033652;28;20035;-67
2023/05/16 07:13:36;;;;;;;9.98;1.40;;;;;;;;;;5018471;28;20061;-68
2023/05/16 07:16:02;;;;;;;15.30;2.65;;;;;;;;;;5029478;28;20017;-68
2023/05/16 07:18:27;;;;;;;11.23;1.45;;;;;;;;;;5033900;28;20068;-68
2023/05/16 07:20:53;;;;;;;8.27;1.33;;;;;;;;;;5022014;28;20033;-68
2023/05/16 07:23:18;;;;;;;9.05;1.20;;;;;;;;;;5013977;28;20022;-68
2023/05/16 07:25:43;;;;;;;5.22;1.30;;;;;;;;;;5022215;28;20458;-68
2023/05/16 07:28:09;;;;;;;10.50;1.27;;;;;;;;;;5035812;28;20022;-68
2023/05/16 07:30:34;;;;;;;7.65;1.38;;;;;;;;;;5033559;28;20033;-68
2023/05/16 07:32:59;;;;;;;6.35;1.27;;;;;;;;;;5018332;28;20385;-68
2023/05/16 07:35:25;;;;;;;10.57;1.92;;;;;;;;;;5015240;28;20049;-68
2023/05/16 07:37:50;;;;;;;7.75;1.50;;;;;;;;;;5013771;28;20436;-68
2023/05/16 07:40:17;;;;;;;9.07;1.30;;;;;;;;;;5013751;28;20144;-68
2023/05/16 07:42:43;;;;;;;8.27;1.40;;;;;;;;;;5025776;28;20382;-68
2023/05/16 07:45:08;;;;;;;7.65;1.10;;;;;;;;;;5025845;28;20029;-68
2023/05/16 07:47:34;;;;;;;8.65;1.13;;;;;;;;;;5013646;28;20044;-68
2023/05/16 07:49:59;;;;;;;9.20;1.30;;;;;;;;;;5017465;28;20374;-68
2023/05/16 07:52:25;;;;;;;5.85;1.23;;;;;;;;;;5032857;28;20029;-69
2023/05/16 07:54:50;;;;;;;7.55;1.35;;;;;;;;;;5032052;28;20017;-68
2023/05/16 07:57:16;;;;;;;8.20;1.13;;;;;;;;;;5032949;28;20095;-68
2023/05/16 07:59:42;;;;;;;7.90;1.38;;;;;;;;;;5032881;28;20025;-68
2023/05/16 08:02:08;;;;;;;6.72;1.10;;;;;;;;;;5035437;28;20032;-68
2023/05/16 08:04:33;;;;;;;7.28;1.42;;;;;;;;;;5013559;28;20022;-68
2023/05/16 08:06:58;;;;;;;8.30;1.50;;;;;;;;;;5015234;28;20116;-68
2023/05/16 08:09:24;;;;;;;7.20;1.13;;;;;;;;;;5017862;28;20149;-68
2023/05/16 08:11:49;;;;;;;7.88;1.38;;;;;;;;;;5032095;28;20026;-68
2023/05/16 08:14:14;;;;;;;6.68;1.38;;;;;;;;;;5033011;28;20060;-68
2023/05/16 08:16:40;;;;;;;6.95;1.50;;;;;;;;;;5045404;28;20035;-68
2023/05/16 08:19:06;;;;;;;6.95;1.45;;;;;;;;;;5052973;28;20060;-68
2023/05/16 08:21:31;;;;;;;6.80;1.48;;;;;;;;;;5025905;28;20499;-68
2023/05/16 08:23:56;;;;;;;6.45;1.23;;;;;;;;;;5030068;28;20026;-68
2023/05/16 08:26:21;;;;;;;8.90;1.30;;;;;;;;;;5031912;28;20504;-68
2023/05/16 08:28:47;;;;;;;8.70;1.38;;;;;;;;;;5032779;28;20025;-69
2023/05/16 08:31:12;;;;;;;11.05;1.38;;;;;;;;;;5034402;28;20017;-69
2023/05/16 08:33:37;;;;;;;10.07;1.30;;;;;;;;;;5036794;28;20017;-68
2023/05/16 08:36:03;;;;;;;8.32;1.30;;;;;;;;;;5027854;28;20018;-69
2023/05/16 08:38:28;;;;;;;8.27;1.60;;;;;;;;;;5016640;28;20420;-68
2023/05/16 08:40:53;;;;;;;7.07;1.58;;;;;;;;;;5024039;28;20096;-67
2023/05/16 08:43:19;;;;;;;6.78;1.38;;;;;;;;;;5036718;28;20056;-68
2023/05/16 08:45:44;;;;;;;8.05;1.20;;;;;;;;;;5036224;28;20025;-68
2023/05/16 08:48:10;;;;;;;6.90;1.30;;;;;;;;;;5032883;28;20052;-68
2023/05/16 08:50:36;;;;;;;9.93;1.65;;;;;;;;;;5017359;28;20503;-69
2023/05/16 08:53:05;;;;;;;8.90;1.33;;;;;;;;;;5029128;28;20026;-69
2023/05/16 08:55:31;;;;;;;4.75;1.00;;;;;;;;;;5036133;28;20021;-69
2023/05/16 08:57:57;;;;;;;4.82;1.05;;;;;;;;;;5026686;28;20468;-69
2023/05/16 09:00:23;;;;;;;8.47;1.60;;;;;;;;;;5016477;28;20109;-69
2023/05/16 09:02:48;;;;;;;8.10;1.43;;;;;;;;;;5031233;28;20049;-69
2023/05/16 09:05:14;;;;;;;7.10;1.30;;;;;;;;;;5034915;28;20074;-69
2023/05/16 09:07:40;;;;;;;6.37;1.10;;;;;;;;;;5036241;28;20026;-68
2023/05/16 09:10:05;;;;;;;12.23;1.40;;;;;;;;;;5036057;28;20025;-68
2023/05/16 09:12:32;;;;;;;6.67;1.03;;;;;;;;;;5036017;28;20014;-67
2023/05/16 09:14:57;;;;;;;4.07;0.93;;;;;;;;;;5036105;28;20018;-67
2023/05/16 09:17:22;;;;;;;6.78;1.00;;;;;;;;;;5031108;28;20028;-67
2023/05/16 09:19:51;;;;;;;5.18;0.90;;;;;;;;;;5038139;28;20056;-68
2023/05/16 09:22:17;;;;;;;6.30;1.20;;;;;;;;;;5045569;28;20033;-68
2023/05/16 09:24:43;;;;;;;8.38;1.27;;;;;;;;;;5053569;28;20033;-68
2023/05/16 09:27:13;;;;;;;7.88;1.30;;;;;;;;;;5030349;28;20074;-68
2023/05/16 09:29:45;;;;;;;6.28;1.25;;;;;;;;;;5035348;28;20025;-68
2023/05/16 09:32:14;;;;;;;7.65;1.60;;;;;;;;;;5035807;28;20022;-68
2023/05/16 09:34:48;;;;;;;6.72;1.30;;;;;;;;;;5035373;28;20045;-68
2023/05/16 09:37:19;;;;;;;9.65;1.50;;;;;;;;;;5021619;28;20029;-68
2023/05/16 09:39:54;;;;;;;6.30;1.42;;;;;;;;;;5024900;28;20025;-68
2023/05/16 09:42:19;;;;;;;7.88;1.10;;;;;;;;;;5035364;28;20476;-69
2023/05/16 09:44:52;;;;;;;6.95;1.80;;;;;;;;;;5035409;28;20025;-68
2023/05/16 09:47:18;;;;;;;8.73;1.30;;;;;;;;;;5035307;28;20092;-68
2023/05/16 09:49:44;;;;;;;6.43;1.10;;;;;;;;;;5032776;28;20447;-68
2023/05/16 09:52:09;;;;;;;7.72;1.10;;;;;;;;;;5024408;28;20030;-68
2023/05/16 09:54:35;;;;;;;9.90;1.60;;;;;;;;;;5035138;28;20048;-68
2023/05/16 09:57:00;;;;;;;7.70;0.93;;;;;;;;;;5037875;28;20022;-68
2023/05/16 09:59:29;;;;;;;5.78;1.15;;;;;;;;;;5035030;28;20473;-68
2023/05/16 10:01:55;;;;;;;4.18;1.50;;;;;;;;;;5033887;28;20022;-68
2023/05/16 10:04:20;;;;;;;3.92;1.00;;;;;;;;;;5031662;28;20025;-68
2023/05/16 10:06:47;;;;;;;6.05;1.45;;;;;;;;;;5034053;28;20025;-68
2023/05/16 10:09:15;;;;;;;5.00;1.10;;;;;;;;;;5034699;28;20036;-68
2023/05/16 10:11:41;;;;;;;7.78;1.20;;;;;;;;;;5034960;28;20378;-68
2023/05/16 10:14:12;;;;;;;6.43;1.10;;;;;;;;;;5020561;28;20052;-68
2023/05/16 10:16:41;;;;;;;5.78;1.10;;;;;;;;;;5028475;28;20017;-68
2023/05/16 10:19:07;;;;;;;8.82;1.20;;;;;;;;;;5054397;28;20028;-68
2023/05/16 10:21:32;;;;;;;7.10;1.00;;;;;;;;;;5046567;28;20029;-69
2023/05/16 10:23:59;;;;;;;6.63;1.20;;;;;;;;;;5033142;28;20117;-68
2023/05/16 10:26:24;;;;;;;6.05;1.15;;;;;;;;;;5034736;28;20100;-68
2023/05/16 10:28:50;;;;;;;5.75;1.10;;;;;;;;;;5034018;28;20521;-69
2023/05/16 10:31:16;;;;;;;5.10;1.00;;;;;;;;;;5033219;28;20091;-69
2023/05/16 10:33:41;;;;;;;10.23;1.17;;;;;;;;;;5034476;28;20025;-69
2023/05/16 10:36:07;;;;;;;6.68;1.30;;;;;;;;;;5034530;28;20017;-69
2023/05/16 10:38:33;;;;;;;10.52;1.13;;;;;;;;;;5017298;28;20473;-68
2023/05/16 10:40:59;;;;;;;4.63;1.00;;;;;;;;;;5012968;28;20045;-68
2023/05/16 10:43:25;;;;;;;8.77;1.20;;;;;;;;;;5031181;28;20033;-69
2023/05/16 10:45:55;;;;;;;4.82;1.00;;;;;;;;;;5034304;28;20017;-69
2023/05/16 10:48:27;;;;;;;5.22;1.10;;;;;;;;;;5033838;28;20070;-69
2023/05/16 10:50:52;;;;;;;7.80;1.15;;;;;;;;;;5034151;28;20025;-69
2023/05/16 10:53:21;;;;;;;5.00;1.02;;;;;;;;;;5032629;28;20385;-69
2023/05/16 10:56:04;;;;;;;7.95;1.20;;;;;;;;;;5033674;28;20010;-68
2023/05/16 10:58:47;;;;;;;4.22;1.40;;;;;;;;;;5033704;28;20367;-69
2023/05/16 11:01:23;;;;;;;4.25;1.08;;;;;;;;;;5033039;28;20377;-69
2023/05/16 11:04:01;;;;;;;4.40;1.10;;;;;;;;;;5027222;28;20437;-69
2023/05/16 11:06:47;;;;;;;6.15;1.20;;;;;;;;;;5033971;28;20504;-69
2023/05/16 11:09:22;;;;;;;8.18;1.38;;;;;;;;;;5025408;28;20452;-69
2023/05/16 11:12:05;;;;;;;9.52;1.08;;;;;;;;;;5033203;28;20040;-69
2023/05/16 11:14:44;;;;;;;8.05;1.00;;;;;;;;;;5033900;28;20363;-69
2023/05/16 11:17:27;;;;;;;6.40;1.00;;;;;;;;;;5036029;28;20018;-69
2023/05/16 11:19:58;;;;;;;4.07;1.00;;;;;;;;;;5031443;28;20102;-70
2023/05/16 11:22:33;;;;;;;6.00;0.80;;;;;;;;;;5029860;28;20044;-69
2023/05/16 11:25:08;;;;;;;6.90;0.95;;;;;;;;;;5014034;28;20545;-70
2023/05/16 11:27:43;;;;;;;4.13;0.88;;;;;;;;;;5015561;28;20018;-70
2023/05/16 11:30:12;;;;;;;7.43;1.10;;;;;;;;;;5013724;28;20100;-70
2023/05/16 11:32:38;;;;;;;4.65;0.73;;;;;;;;;;5033217;28;20481;-69
2023/05/16 11:35:04;;;;;;;7.07;0.80;;;;;;;;;;5032077;28;20020;-69
2023/05/16 11:37:29;;;;;;;8.20;1.23;;;;;;;;;;5013897;28;20370;-70
2023/05/16 11:39:59;;;;;;;4.68;0.80;;;;;;;;;;5013666;28;20040;-69
2023/05/16 11:42:27;;;;;;;4.75;1.02;;;;;;;;;;5013366;28;20026;-70
2023/05/16 11:45:03;;;;;;;5.03;0.80;;;;;;;;;;5025759;28;20025;-69
2023/05/16 11:47:29;;;;;;;8.02;1.40;;;;;;;;;;5030685;28;20021;-69
2023/05/16 11:49:56;;;;;;;7.30;1.00;;;;;;;;;;5013544;28;20432;-69
2023/05/16 11:52:22;;;;;;;6.22;1.10;;;;;;;;;;5013335;28;20013;-69
2023/05/16 11:54:47;;;;;;;6.28;1.08;;;;;;;;;;5032466;28;20025;-69
2023/05/16 11:57:12;;;;;;;6.97;1.45;;;;;;;;;;5030071;28;20029;-70
2023/05/16 11:59:37;;;;;;;8.18;1.40;;;;;;;;;;5031628;28;20473;-70
2023/05/16 12:02:04;;;;;;;8.45;1.20;;;;;;;;;;5033969;28;20021;-70
2023/05/16 12:04:30;;;;;;;10.18;1.13;;;;;;;;;;5032943;28;20025;-70
2023/05/16 12:07:00;;;;;;;5.75;0.93;;;;;;;;;;5036952;28;20025;-70
2023/05/16 12:09:25;;;;;;;7.43;1.20;;;;;;;;;;5021918;28;20052;-70
2023/05/16 12:11:50;;;;;;;4.95;1.08;;;;;;;;;;5017523;28;20022;-71
2023/05/16 12:14:16;;;;;;;6.43;1.48;;;;;;;;;;5019936;28;20432;-70
2023/05/16 12:16:42;;;;;;;4.95;0.85;;;;;;;;;;5035463;28;20235;-70
2023/05/16 12:19:08;;;;;;;5.40;1.00;;;;;;;;;;5053093;28;20074;-69
2023/05/16 12:21:33;;;;;;;7.18;1.13;;;;;;;;;;5057029;28;20025;-70
2023/05/16 12:23:59;;;;;;;4.30;0.80;;;;;;;;;;5036134;28;20500;-70
2023/05/16 12:26:25;;;;;;;5.13;1.25;;;;;;;;;;5017024;28;20105;-70
2023/05/16 12:28:56;;;;;;;3.58;0.70;;;;;;;;;;5016899;28;20025;-70
2023/05/16 12:31:22;;;;;;;4.00;0.95;;;;;;;;;;5034209;28;20028;-70
2023/05/16 12:33:47;;;;;;;3.17;0.75;;;;;;;;;;5036571;28;20021;-71
2023/05/16 12:36:14;;;;;;;8.57;2.17;;;;;;;;;;5031162;28;20067;-70
2023/05/16 12:38:39;;;;;;;6.15;0.85;;;;;;;;;;5032061;28;20381;-71
2023/05/16 12:41:05;;;;;;;7.53;1.20;;;;;;;;;;5016982;28;20048;-71
2023/05/16 12:43:31;;;;;;;6.78;1.00;;;;;;;;;;5016657;28;20021;-70
2023/05/16 12:45:57;;;;;;;8.27;1.00;;;;;;;;;;5016531;28;20067;-70
2023/05/16 12:48:22;;;;;;;8.85;1.73;;;;;;;;;;5016475;28;20501;-70
2023/05/16 12:50:48;;;;;;;5.32;1.30;;;;;;;;;;5016644;28;20014;-70
2023/05/16 12:53:14;;;;;;;6.60;1.27;;;;;;;;;;5016285;28;20108;-69
2023/05/16 12:55:39;;;;;;;4.55;1.00;;;;;;;;;;5017927;28;20025;-70
2023/05/16 12:58:05;;;;;;;2.92;0.80;;;;;;;;;;5016736;28;20022;-70
2023/05/16 13:00:31;;;;;;;5.85;0.80;;;;;;;;;;5022890;28;20025;-70
2023/05/16 13:02:56;;;;;;;4.35;0.90;;;;;;;;;;5023796;28;20124;-71
2023/05/16 13:05:22;;;;;;;3.72;0.90;;;;;;;;;;5023716;28;20092;-70
2023/05/16 13:07:50;;;;;;;4.43;0.95;;;;;;;;;;5016467;28;20029;-70
2023/05/16 13:10:15;;;;;;;3.20;0.77;;;;;;;;;;5025655;28;20032;-70
2023/05/16 13:12:41;;;;;;;6.43;1.20;;;;;;;;;;5038301;28;20017;-70
2023/05/16 13:15:06;;;;;;;6.30;0.90;;;;;;;;;;5024713;28;20079;-69
2023/05/16 13:17:32;;;;;;;8.88;1.10;;;;;;;;;;5015799;28;20018;-70
2023/05/16 13:19:58;;;;;;;4.22;0.80;;;;;;;;;;5015987;28;20105;-69
2023/05/16 13:22:23;;;;;;;5.10;0.82;;;;;;;;;;5016289;28;20096;-70
2023/05/16 13:24:48;;;;;;;5.35;0.80;;;;;;;;;;5016698;28;20021;-70
2023/05/16 13:27:15;;;;;;;5.03;0.85;;;;;;;;;;5032904;28;20075;-70
2023/05/16 13:29:40;;;;;;;4.85;0.80;;;;;;;;;;5055648;28;20519;-70
2023/05/16 13:32:06;;;;;;;7.07;0.90;;;;;;;;;;5055457;28;20020;-70
2023/05/16 13:34:32;;;;;;;8.23;1.15;;;;;;;;;;5042078;28;20088;-70
2023/05/16 13:36:57;;;;;;;3.85;0.80;;;;;;;;;;5018376;28;20042;-71
2023/05/16 13:39:23;;;;;;;6.20;1.10;;;;;;;;;;5016823;28;20018;-71
2023/05/16 13:41:48;;;;;;;6.35;1.05;;;;;;;;;;5015499;28;20030;-70
2023/05/16 13:44:13;;;;;;;6.95;0.90;;;;;;;;;;5023404;28;20029;-71
2023/05/16 13:46:39;;;;;;;5.78;0.80;;;;;;;;;;5035235;28;20071;-70
2023/05/16 13:49:05;;;;;;;7.88;1.10;;;;;;;;;;5035310;28;20030;-71
2023/05/16 13:51:31;;;;;;;5.03;0.80;;;;;;;;;;5035348;28;20461;-71
2023/05/16 13:53:56;;;;;;;4.00;0.90;;;;;;;;;;5031065;28;20014;-70
2023/05/16 13:56:21;;;;;;;3.30;0.90;;;;;;;;;;5014580;28;20169;-70
2023/05/16 13:58:49;;;;;;;4.22;0.70;;;;;;;;;;5037616;28;20024;-70
2023/05/16 14:01:14;;;;;;;3.13;0.60;;;;;;;;;;5034995;28;20033;-69
2023/05/16 14:03:39;;;;;;;5.88;1.00;;;;;;;;;;5033643;28;20060;-70
2023/05/16 14:06:05;;;;;;;4.38;0.93;;;;;;;;;;5035186;28;20083;-71
2023/05/16 14:08:30;;;;;;;5.50;1.13;;;;;;;;;;5035771;28;20021;-71
2023/05/16 14:10:55;;;;;;;8.65;1.77;;;;;;;;;;5016452;28;20026;-70
2023/05/16 14:13:21;;;;;;;6.43;1.60;;;;;;;;;;5014753;28;20044;-72
2023/05/16 14:15:50;;;;;;;7.78;1.30;;;;;;;;;;5015474;28;20504;-73
2023/05/16 14:18:15;;;;;;;7.07;1.60;;;;;;;;;;5021677;28;20022;-71
2023/05/16 14:20:41;;;;;;;6.15;1.20;;;;;;;;;;5034585;28;20373;-71
2023/05/16 14:23:06;;;;;;;6.50;1.27;;;;;;;;;;5034777;28;20477;-70
2023/05/16 14:25:31;;;;;;;8.02;1.38;;;;;;;;;;5030611;28;20439;-70
2023/05/16 14:27:56;;;;;;;6.80;1.40;;;;;;;;;;5032611;28;20056;-70
2023/05/16 14:30:22;;;;;;;8.48;1.52;;;;;;;;;;5034255;28;20017;-70
2023/05/16 14:32:47;;;;;;;9.65;1.30;;;;;;;;;;5034625;28;20017;-70
2023/05/16 14:35:13;;;;;;;6.82;1.42;;;;;;;;;;5033618;28;20385;-70